• Join FlightAware (Why Join?)
  • Login
  • US Flag 
Rudolph Flight #1: Arrived! 
07:36AM EST


 

Airport Tracker/Info


-or-


 

Live Flight TrackerFlight Track Log ✈ SWA868 ✈ 19-May-2013 ✈ KBNA - KTPA

Flight Track Log - Related Links

Times and Time Zones

All times are in EDT time to prevent confusion due to time zone crossing. See the SWA868 flight status page for this flight to view local times or setup timezone preferences in your user account.

Time Position Orientation Groundspeed Altitude Reporting Facility
EDT Latitude Longitude Course Direction KTS MPH feet Rate Location/Type
09:20PM 36.1000 -86.6667 199° South 142 163 1,800  Level Nashville TRACON
09:21PM 36.0561 -86.6856 199° South 148 170 3,700 2,160 Climbing Memphis Center
09:22PM 35.9878 -86.6964 187° South 203 234 6,300 3,120 Climbing Memphis Center
09:23PM 35.9067 -86.7075 186° South 280 322 10,000 3,300 Climbing Memphis Center
09:24PM 35.8133 -86.7244 188° South 325 374 12,900 3,180 Climbing Memphis Center
09:25PM 35.7158 -86.7392 187° South 357 411 16,400 3,300 Climbing Memphis Center
09:26PM 35.6061 -86.7644 191° South 382 440 19,500 2,760 Climbing Memphis Center
09:28PM 35.4206 -86.7861 185° South 425 489 24,200 2,640 Climbing Atlanta Center
09:29PM 35.2994 -86.7922 182° South 425 489 26,900 1,860 Climbing Atlanta Center
09:30PM 35.1825 -86.7986 183° South 425 489 28,000 1,140 Climbing Atlanta Center
09:31PM 35.0617 -86.7894 176° South 430 495 29,200 1,500 Climbing Atlanta Center
09:32PM 34.9392 -86.7625 170° South 436 502 31,000 1,980 Climbing Atlanta Center
09:33PM 34.8186 -86.7358 170° South 443 510 33,200 2,040 Climbing Atlanta Center
09:34PM 34.7075 -86.6692 154° Southeast 431 496 35,100 1,740 Climbing Atlanta Center
09:35PM 34.5961 -86.6050 155° Southeast 442 509 36,700 1,500 Climbing Atlanta Center
09:36PM 34.4867 -86.5411 154° Southeast 442 509 38,100 1,260 Climbing Atlanta Center
09:37PM 34.3775 -86.4803 155° Southeast 437 503 39,300 900 Climbing Atlanta Center
09:38PM 34.2681 -86.4167 154° Southeast 437 503 40,000 300 Climbing Atlanta Center
09:39PM 34.1608 -86.3533 154° Southeast 437 503 40,000  Level Atlanta Center
09:40PM 34.0514 -86.2903 154° Southeast 437 503 40,000 60 Level Atlanta Center
09:41PM 33.9417 -86.2297 155° Southeast 437 503 40,200 480 Climbing Atlanta Center
09:42PM 33.8261 -86.1617 154° Southeast 437 503 41,000 360 Climbing Atlanta Center
09:43PM 33.7164 -86.1017 156° South 437 503 41,000  Level Atlanta Center
09:44PM 33.6089 -86.0392 154° Southeast 437 503 41,000  Level Atlanta Center
09:45PM 33.5117 -85.9822 154° Southeast 437 503 41,000  Level Atlanta Center
09:46PM 33.4042 -85.9225 155° Southeast 437 503 41,000  Level Atlanta Center
09:47PM 33.3008 -85.8506 150° Southeast 437 503 41,000  Level Atlanta Center
09:48PM 33.2081 -85.7644 142° Southeast 437 503 41,000  Level Atlanta Center
09:49PM 33.1092 -85.6731 142° Southeast 437 503 41,000  Level Atlanta Center
09:50PM 33.0186 -85.5822 140° Southeast 437 503 41,000  Level Atlanta Center
09:51PM 32.9236 -85.4889 140° Southeast 437 503 41,000  Level Atlanta Center
09:52PM 32.8267 -85.3936 140° Southeast 443 510 41,000  Level Atlanta Center
09:53PM 32.7250 -85.3350 154° Southeast 428 493 41,000  Level Atlanta Center
09:54PM 32.6150 -85.2719 154° Southeast 422 486 41,000  Level Atlanta Center
09:55PM 32.5114 -85.2014 150° Southeast 424 488 41,000  Level Atlanta Center
09:56PM 32.4033 -85.1286 150° Southeast 436 502 41,000  Level Atlanta Center
09:57PM 32.2914 -85.0658 155° Southeast 441 507 41,000  Level Atlanta Center
09:58PM 32.1767 -85.0278 164° South 434 499 41,000  Level Atlanta Center
09:58PM 32.1094 -84.9944 157° South 431 496 41,000  Level Jacksonville Center
09:59PM 31.9953 -84.9503 162° South 437 503 41,000  Level Jacksonville Center
10:00PM 31.8833 -84.9036 161° South 442 509 41,000  Level Jacksonville Center
10:01PM 31.7733 -84.8622 162° South 432 497 41,000  Level Jacksonville Center
10:02PM 31.6592 -84.8158 161° South 426 490 41,000  Level Jacksonville Center
10:03PM 31.5431 -84.7697 161° South 426 490 41,000  Level Jacksonville Center
10:04PM 31.4308 -84.7236 161° South 426 490 41,000  Level Jacksonville Center
10:05PM 31.3167 -84.6775 161° South 426 490 41,000  Level Jacksonville Center
10:06PM 31.2006 -84.6317 161° South 431 496 41,000  Level Jacksonville Center
10:07PM 31.0842 -84.5858 161° South 437 503 41,000  Level Jacksonville Center
10:08PM 30.9678 -84.5375 160° South 442 509 41,000  Level Jacksonville Center
10:09PM 30.8494 -84.4919 162° South 442 509 41,000  Level Jacksonville Center
10:10PM 30.7353 -84.4467 161° South 442 509 41,000  Level Jacksonville Center
10:11PM 30.6189 -84.3989 161° South 442 509 41,000  Level Jacksonville Center
10:12PM 30.5067 -84.3417 156° South 442 509 41,000  Level Jacksonville Center
10:13PM 30.3969 -84.2700 151° Southeast 442 509 41,000  Level Jacksonville Center
10:14PM 30.2892 -84.1989 150° Southeast 447 514 41,000  Level Jacksonville Center
10:15PM 30.1686 -84.1228 151° Southeast 447 514 41,000  Level Jacksonville Center
10:16PM 30.0608 -84.0517 150° Southeast 452 520 41,000  Level Jacksonville Center
10:17PM 29.9508 -83.9808 151° Southeast 452 520 41,000  Level Jacksonville Center
10:18PM 29.8386 -83.9078 151° Southeast 457 526 41,000 -840 Level Jacksonville Center
10:19PM 29.7286 -83.8372 151° Southeast 457 526 39,400 -2,160 Descending Jacksonville Center
10:20PM 29.6183 -83.7669 151° Southeast 457 526 36,700 -3,000 Descending Jacksonville Center
10:21PM 29.5061 -83.6944 151° Southeast 457 526 33,400 -3,000 Descending Jacksonville Center
10:22PM 29.3958 -83.6244 151° Southeast 457 526 30,800 -2,520 Descending Jacksonville Center
10:23PM 29.2878 -83.5544 151° Southeast 457 526 28,400 -2,100 Descending Jacksonville Center
10:24PM 29.1817 -83.4872 151° Southeast 451 519 26,700 -1,200 Descending Jacksonville Center
10:25PM 29.0775 -83.4200 151° Southeast 446 513 26,000 -360 Descending Jacksonville Center
10:26PM 28.9733 -83.3531 151° Southeast 435 501 26,000 -1,080 Level Jacksonville Center
10:27PM 28.8692 -83.2908 152° Southeast 430 495 23,900 -2,280 Descending Jacksonville Center
10:28PM 28.7694 -83.2242 150° Southeast 425 489 21,500 -2,400 Descending Jacksonville Center
10:29PM 28.6692 -83.1622 152° Southeast 413 475 19,200 -2,340 Descending Jacksonville Center
10:31PM 28.4833 -83.0500 152° Southeast 383 441 14,700 -1,920 Descending Tampa TRACON
10:32PM 28.4000 -83.0000 152° Southeast 363 418 13,700 -1,020 Descending Tampa TRACON
10:33PM 28.3167 -82.9333 145° Southeast 353 406 12,700 -960 Descending Tampa TRACON
10:34PM 28.2500 -82.8833 147° Southeast 349 402 12,000 -960 Descending Tampa TRACON
10:35PM 28.1667 -82.8333 152° Southeast 343 395 11,000 -1,080 Descending Tampa TRACON
10:36PM 28.1000 -82.7833 147° Southeast 319 367 10,000 -1,320 Descending Tampa TRACON
10:37PM 28.0333 -82.7333 146° Southeast 302 348 8,500 -1,380 Descending Tampa TRACON
10:38PM 27.9667 -82.6833 146° Southeast 294 338 7,300 -960 Descending Tampa TRACON
10:39PM 27.9000 -82.6500 156° South 249 287 6,600 -1,200 Descending Tampa TRACON
10:40PM 27.8333 -82.6167 156° South 225 259 5,000 -1,800 Descending Tampa TRACON
10:41PM 27.8000 -82.5833 139° Southeast 227 261 3,100 -1,380 Descending Tampa TRACON
10:42PM 27.8333 -82.5500 41° Northeast 193 222 2,300 -840 Descending Tampa TRACON
10:43PM 27.8833 -82.5500 360° North 154 177 1,500 -780 Descending Tampa TRACON
10:44PM 27.9167 -82.5500 360° North 126 145 800 -660 Descending Tampa TRACON
10:45PM 27.9500 -82.5500 360° North 128 147 200 -600 Descending Tampa TRACON
10:47PM 27.9755 -82.5332 352° North  Level Estimated
10:54PM 27.9755 -82.5332 161° South  Level Estimated